sensor_id;sensor_type;location;lat;lon;timestamp;pressure;altitude;pressure_sealevel;temperature;humidity
48386;BME280;34644;47.964;7.982;2023-05-19T00:00:39;96969.47;;;16.03;70.46
48386;BME280;34644;47.964;7.982;2023-05-19T00:07:40;96965.22;;;16.02;70.62
48386;BME280;34644;47.964;7.982;2023-05-19T00:14:40;96958.84;;;16.03;70.65
48386;BME280;34644;47.964;7.982;2023-05-19T00:21:40;96957.22;;;16.02;70.69
48386;BME280;34644;47.964;7.982;2023-05-19T00:28:41;96959.88;;;16.02;70.89
48386;BME280;34644;47.964;7.982;2023-05-19T00:35:41;96954.56;;;16.02;70.85
48386;BME280;34644;47.964;7.982;2023-05-19T00:42:42;96950.06;;;16.02;70.87
48386;BME280;34644;47.964;7.982;2023-05-19T00:49:42;96943.94;;;16.02;70.96
48386;BME280;34644;47.964;7.982;2023-05-19T00:56:43;96950.06;;;16.02;71.11
48386;BME280;34644;47.964;7.982;2023-05-19T01:03:43;96946.59;;;16.02;71.27
48386;BME280;34644;47.964;7.982;2023-05-19T01:10:43;96935.97;;;16.02;71.23
48386;BME280;34644;47.964;7.982;2023-05-19T01:17:47;96930.66;;;16.02;71.27
48386;BME280;34644;47.964;7.982;2023-05-19T01:31:50;96922.66;;;16.02;71.23
48386;BME280;34644;47.964;7.982;2023-05-19T01:38:53;96913.13;;;16.01;71.45
48386;BME280;34644;47.964;7.982;2023-05-19T01:45:53;96909.38;;;16.02;71.49
48386;BME280;34644;47.964;7.982;2023-05-19T01:52:54;96911.25;;;16.01;71.43
48386;BME280;34644;47.964;7.982;2023-05-19T02:14:19;96918.69;;;15.99;71.41
48386;BME280;34644;47.964;7.982;2023-05-19T02:21:20;96927.19;;;16.01;71.63
48386;BME280;34644;47.964;7.982;2023-05-19T02:28:21;96924.78;;;16.00;71.61
48386;BME280;34644;47.964;7.982;2023-05-19T02:35:22;96931.97;;;15.99;71.54
48386;BME280;34644;47.964;7.982;2023-05-19T02:42:22;96923.22;;;15.99;71.62
48386;BME280;34644;47.964;7.982;2023-05-19T02:49:22;96917.91;;;15.99;71.55
48386;BME280;34644;47.964;7.982;2023-05-19T02:56:23;96910.72;;;15.99;71.60
48386;BME280;34644;47.964;7.982;2023-05-19T03:03:24;96917.09;;;15.98;71.84
48386;BME280;34644;47.964;7.982;2023-05-19T03:10:25;96906.44;;;15.98;71.81
48386;BME280;34644;47.964;7.982;2023-05-19T03:17:25;96904.06;;;15.97;71.85
48386;BME280;34644;47.964;7.982;2023-05-19T03:24:25;96905.13;;;15.96;72.05
48386;BME280;34644;47.964;7.982;2023-05-19T03:31:26;96902.47;;;15.96;71.74
48386;BME280;34644;47.964;7.982;2023-05-19T03:38:26;96914.44;;;15.98;71.66
48386;BME280;34644;47.964;7.982;2023-05-19T03:45:31;96898.22;;;15.95;71.76
48386;BME280;34644;47.964;7.982;2023-05-19T03:52:33;96909.88;;;15.94;71.82
48386;BME280;34644;47.964;7.982;2023-05-19T03:59:43;96909.34;;;15.91;71.75
48386;BME280;34644;47.964;7.982;2023-05-19T04:06:43;96912.00;;;15.91;71.60
48386;BME280;34644;47.964;7.982;2023-05-19T04:13:44;96911.47;;;15.89;71.47
48386;BME280;34644;47.964;7.982;2023-05-19T04:20:45;96920.25;;;15.90;71.33
48386;BME280;34644;47.964;7.982;2023-05-19T04:27:46;96917.59;;;15.90;71.23
48386;BME280;34644;47.964;7.982;2023-05-19T04:34:47;96922.66;;;15.91;71.35
48386;BME280;34644;47.964;7.982;2023-05-19T04:41:54;96911.47;;;15.89;72.14
48386;BME280;34644;47.964;7.982;2023-05-19T04:48:56;96916.22;;;15.77;69.35
48386;BME280;34644;47.964;7.982;2023-05-19T04:55:57;96911.13;;;15.76;69.50
48386;BME280;34644;47.964;7.982;2023-05-19T05:02:57;96915.44;;;15.82;68.81
48386;BME280;34644;47.964;7.982;2023-05-19T05:09:59;96915.44;;;15.82;68.66
48386;BME280;34644;47.964;7.982;2023-05-19T05:17:00;96913.56;;;15.82;68.75
48386;BME280;34644;47.964;7.982;2023-05-19T05:24:01;96917.00;;;15.83;68.81
48386;BME280;34644;47.964;7.982;2023-05-19T05:31:05;96909.59;;;15.85;69.20
48386;BME280;34644;47.964;7.982;2023-05-19T05:38:08;96911.69;;;15.83;68.96
48386;BME280;34644;47.964;7.982;2023-05-19T05:45:10;96916.22;;;15.82;68.45
48386;BME280;34644;47.964;7.982;2023-05-19T05:52:11;96916.22;;;15.82;68.48
48386;BME280;34644;47.964;7.982;2023-05-19T05:59:17;96915.19;;;15.83;68.18
48386;BME280;34644;47.964;7.982;2023-05-19T06:06:18;96896.56;;;15.83;68.40
48386;BME280;34644;47.964;7.982;2023-05-19T06:13:21;96906.94;;;15.85;68.30
48386;BME280;34644;47.964;7.982;2023-05-19T06:20:23;96910.66;;;15.84;68.21
48386;BME280;34644;47.964;7.982;2023-05-19T06:27:24;96902.69;;;15.84;68.13
48386;BME280;34644;47.964;7.982;2023-05-19T06:34:25;96897.91;;;15.86;68.18
48386;BME280;34644;47.964;7.982;2023-05-19T06:41:27;96901.38;;;15.86;68.11
48386;BME280;34644;47.964;7.982;2023-05-19T06:48:27;96894.19;;;15.87;68.08
48386;BME280;34644;47.964;7.982;2023-05-19T06:55:27;96893.94;;;15.88;68.23
48386;BME280;34644;47.964;7.982;2023-05-19T07:02:28;96881.69;;;15.87;67.99
48386;BME280;34644;47.964;7.982;2023-05-19T07:09:28;96892.88;;;15.89;68.18
48386;BME280;34644;47.964;7.982;2023-05-19T07:16:30;96880.38;;;15.90;68.43
48386;BME280;34644;47.964;7.982;2023-05-19T07:23:30;96882.00;;;15.91;68.57
48386;BME280;34644;47.964;7.982;2023-05-19T07:30:31;96881.72;;;15.93;68.50
48386;BME280;34644;47.964;7.982;2023-05-19T07:37:31;96860.19;;;15.94;68.50
48386;BME280;34644;47.964;7.982;2023-05-19T07:44:31;96867.09;;;15.95;68.52
48386;BME280;34644;47.964;7.982;2023-05-19T07:51:31;96844.00;;;15.96;68.48
48386;BME280;34644;47.964;7.982;2023-05-19T07:58:32;96838.91;;;15.89;66.94
48386;BME280;34644;47.964;7.982;2023-05-19T08:05:33;96842.91;;;15.91;66.38
48386;BME280;34644;47.964;7.982;2023-05-19T08:12:33;96838.41;;;15.97;67.66
48386;BME280;34644;47.964;7.982;2023-05-19T08:19:33;96837.06;;;16.00;67.97
48386;BME280;34644;47.964;7.982;2023-05-19T08:26:34;96830.44;;;16.02;67.87
48386;BME280;34644;47.964;7.982;2023-05-19T08:33:34;96834.94;;;16.02;67.83
48386;BME280;34644;47.964;7.982;2023-05-19T08:40:34;96826.44;;;16.05;67.94
48386;BME280;34644;47.964;7.982;2023-05-19T08:47:36;96833.94;;;16.13;67.90
48386;BME280;34644;47.964;7.982;2023-05-19T08:54:40;96832.88;;;16.30;68.12
48386;BME280;34644;47.964;7.982;2023-05-19T09:01:44;96831.00;;;16.20;68.07
48386;BME280;34644;47.964;7.982;2023-05-19T09:16:08;96831.78;;;16.15;68.03
48386;BME280;34644;47.964;7.982;2023-05-19T09:23:15;96829.66;;;16.17;67.90
48386;BME280;34644;47.964;7.982;2023-05-19T09:30:15;96819.28;;;16.16;68.08
48386;BME280;34644;47.964;7.982;2023-05-19T09:37:16;96824.88;;;16.14;68.15
48386;BME280;34644;47.964;7.982;2023-05-19T09:51:20;96807.88;;;16.15;68.13
48386;BME280;34644;47.964;7.982;2023-05-19T09:58:20;96814.78;;;16.16;68.23
48386;BME280;34644;47.964;7.982;2023-05-19T10:05:21;96817.97;;;16.18;68.20
48386;BME280;34644;47.964;7.982;2023-05-19T10:12:21;96816.38;;;16.17;68.23
48386;BME280;34644;47.964;7.982;2023-05-19T10:19:22;96818.50;;;16.15;68.26
48386;BME280;34644;47.964;7.982;2023-05-19T10:26:23;96817.72;;;16.15;68.33
48386;BME280;34644;47.964;7.982;2023-05-19T10:33:28;96815.31;;;16.13;68.35
48386;BME280;34644;47.964;7.982;2023-05-19T10:40:34;96812.41;;;16.15;68.43
48386;BME280;34644;47.964;7.982;2023-05-19T10:47:36;96810.53;;;16.15;68.35
48386;BME280;34644;47.964;7.982;2023-05-19T10:54:39;96799.63;;;16.17;68.29
48386;BME280;34644;47.964;7.982;2023-05-19T11:01:40;96807.34;;;16.18;68.15
48386;BME280;34644;47.964;7.982;2023-05-19T11:08:41;96803.91;;;16.18;68.17
48386;BME280;34644;47.964;7.982;2023-05-19T11:15:41;96806.78;;;16.11;66.58
48386;BME280;34644;47.964;7.982;2023-05-19T11:22:45;96805.47;;;16.14;67.34
48386;BME280;34644;47.964;7.982;2023-05-19T11:30:08;96805.72;;;16.17;67.60
48386;BME280;34644;47.964;7.982;2023-05-19T11:37:14;96808.94;;;16.19;67.64
48386;BME280;34644;47.964;7.982;2023-05-19T11:44:14;96807.88;;;16.20;67.70
48386;BME280;34644;47.964;7.982;2023-05-19T11:51:14;96802.03;;;16.23;67.58
48386;BME280;34644;47.964;7.982;2023-05-19T11:58:16;96801.47;;;16.06;63.97
48386;BME280;34644;47.964;7.982;2023-05-19T12:05:22;96798.31;;;16.19;66.42
48386;BME280;34644;47.964;7.982;2023-05-19T12:12:23;96794.56;;;16.20;66.47
48386;BME280;34644;47.964;7.982;2023-05-19T12:19:23;96794.81;;;16.24;66.76
48386;BME280;34644;47.964;7.982;2023-05-19T12:26:24;96799.34;;;16.23;67.02
48386;BME280;34644;47.964;7.982;2023-05-19T12:33:25;96794.56;;;16.25;67.03
48386;BME280;34644;47.964;7.982;2023-05-19T12:40:25;96798.31;;;16.24;67.20
48386;BME280;34644;47.964;7.982;2023-05-19T12:47:31;96795.66;;;16.24;67.18
48386;BME280;34644;47.964;7.982;2023-05-19T12:54:32;96788.72;;;16.23;67.31
48386;BME280;34644;47.964;7.982;2023-05-19T13:01:34;96790.34;;;16.24;67.33
48386;BME280;34644;47.964;7.982;2023-05-19T13:08:36;96790.34;;;16.24;67.36
48386;BME280;34644;47.964;7.982;2023-05-19T13:15:37;96784.19;;;16.24;67.53
48386;BME280;34644;47.964;7.982;2023-05-19T13:22:39;96772.78;;;16.23;67.46
48386;BME280;34644;47.964;7.982;2023-05-19T13:29:40;96774.38;;;16.24;67.50
48386;BME280;34644;47.964;7.982;2023-05-19T13:36:40;96774.38;;;16.24;67.61
48386;BME280;34644;47.964;7.982;2023-05-19T13:43:41;96774.63;;;16.23;67.40
48386;BME280;34644;47.964;7.982;2023-05-19T13:50:41;96779.44;;;16.21;67.27
48386;BME280;34644;47.964;7.982;2023-05-19T13:57:42;96781.78;;;16.22;67.17
48386;BME280;34644;47.964;7.982;2023-05-19T14:04:42;96781.78;;;16.22;67.22
48386;BME280;34644;47.964;7.982;2023-05-19T14:11:42;96790.84;;;16.21;66.25
48386;BME280;34644;47.964;7.982;2023-05-19T14:18:43;96784.19;;;16.08;63.92
48386;BME280;34644;47.964;7.982;2023-05-19T14:25:43;96789.78;;;16.07;63.62
48386;BME280;34644;47.964;7.982;2023-05-19T14:32:43;96790.31;;;16.04;63.18
48386;BME280;34644;47.964;7.982;2023-05-19T14:39:43;96788.16;;;15.96;61.99
48386;BME280;34644;47.964;7.982;2023-05-19T14:46:44;96784.69;;;15.90;60.94
48386;BME280;34644;47.964;7.982;2023-05-19T14:53:44;96793.19;;;15.82;61.38
48386;BME280;34644;47.964;7.982;2023-05-19T15:00:47;96792.31;;;15.66;60.02
48386;BME280;34644;47.964;7.982;2023-05-19T15:07:47;96796.03;;;15.70;60.48
48386;BME280;34644;47.964;7.982;2023-05-19T15:14:47;96798.25;;;15.78;60.45
48386;BME280;34644;47.964;7.982;2023-05-19T15:21:47;96794.50;;;15.79;61.40
48386;BME280;34644;47.964;7.982;2023-05-19T15:28:50;96791.22;;;15.56;60.34
48386;BME280;34644;47.964;7.982;2023-05-19T15:35:51;96802.88;;;15.50;60.10
48386;BME280;34644;47.964;7.982;2023-05-19T15:42:51;96801.34;;;15.60;60.09
48386;BME280;34644;47.964;7.982;2023-05-19T15:49:51;96809.84;;;15.62;60.02
48386;BME280;34644;47.964;7.982;2023-05-19T15:56:51;96811.94;;;15.54;59.96
48386;BME280;34644;47.964;7.982;2023-05-19T16:03:52;96814.88;;;15.58;59.56
48386;BME280;34644;47.964;7.982;2023-05-19T16:10:52;96811.44;;;15.63;60.50
48386;BME280;34644;47.964;7.982;2023-05-19T16:17:53;96803.00;;;15.81;61.73
48386;BME280;34644;47.964;7.982;2023-05-19T16:24:54;96812.59;;;15.87;62.29
48386;BME280;34644;47.964;7.982;2023-05-19T16:31:54;96808.88;;;15.88;62.99
48386;BME280;34644;47.964;7.982;2023-05-19T16:38:54;96803.03;;;15.91;63.26
48386;BME280;34644;47.964;7.982;2023-05-19T16:45:54;96798.50;;;15.92;63.59
48386;BME280;34644;47.964;7.982;2023-05-19T16:52:56;96802.00;;;15.93;63.77
48386;BME280;34644;47.964;7.982;2023-05-19T16:59:56;96804.38;;;15.94;64.20
48386;BME280;34644;47.964;7.982;2023-05-19T17:06:56;96804.13;;;15.96;64.39
48386;BME280;34644;47.964;7.982;2023-05-19T17:13:56;96799.59;;;15.96;64.78
48386;BME280;34644;47.964;7.982;2023-05-19T17:20:57;96804.13;;;15.96;64.82
48386;BME280;34644;47.964;7.982;2023-05-19T17:28:02;96794.28;;;15.96;64.90
48386;BME280;34644;47.964;7.982;2023-05-19T17:35:02;96802.25;;;15.96;65.09
48386;BME280;34644;47.964;7.982;2023-05-19T17:42:04;96795.06;;;15.97;65.18
48386;BME280;34644;47.964;7.982;2023-05-19T17:49:05;96798.81;;;15.96;65.21
48386;BME280;34644;47.964;7.982;2023-05-19T17:56:05;96795.06;;;15.97;65.33
48386;BME280;34644;47.964;7.982;2023-05-19T18:03:08;96788.97;;;15.96;65.40
48386;BME280;34644;47.964;7.982;2023-05-19T18:10:09;96793.50;;;15.96;65.48
48386;BME280;34644;47.964;7.982;2023-05-19T18:17:10;96792.66;;;15.95;65.46
48386;BME280;34644;47.964;7.982;2023-05-19T18:24:10;96795.31;;;15.95;65.62
48386;BME280;34644;47.964;7.982;2023-05-19T18:31:10;96803.31;;;15.95;65.63
48386;BME280;34644;47.964;7.982;2023-05-19T18:38:16;96803.31;;;15.95;65.62
48386;BME280;34644;47.964;7.982;2023-05-19T18:45:17;96797.19;;;15.95;65.69
48386;BME280;34644;47.964;7.982;2023-05-19T18:52:17;96798.81;;;15.96;65.63
48386;BME280;34644;47.964;7.982;2023-05-19T18:59:18;96791.88;;;15.95;65.69
48386;BME280;34644;47.964;7.982;2023-05-19T19:06:19;96793.75;;;15.94;65.60
48386;BME280;34644;47.964;7.982;2023-05-19T19:13:22;96802.50;;;15.95;65.76
48386;BME280;34644;47.964;7.982;2023-05-19T19:20:22;96803.56;;;15.94;65.53
48386;BME280;34644;47.964;7.982;2023-05-19T19:27:22;96799.06;;;15.94;65.64
48386;BME280;34644;47.964;7.982;2023-05-19T19:34:25;96807.03;;;15.94;65.81
48386;BME280;34644;47.964;7.982;2023-05-19T19:41:25;96804.38;;;15.94;65.59
48386;BME280;34644;47.964;7.982;2023-05-19T19:48:27;96804.66;;;15.93;65.46
48386;BME280;34644;47.964;7.982;2023-05-19T19:55:28;96789.50;;;15.93;65.70
48386;BME280;34644;47.964;7.982;2023-05-19T20:02:29;96794.28;;;15.91;65.66
48386;BME280;34644;47.964;7.982;2023-05-19T20:09:30;96796.13;;;15.90;65.62
48386;BME280;34644;47.964;7.982;2023-05-19T20:16:30;96795.06;;;15.91;65.65
48386;BME280;34644;47.964;7.982;2023-05-19T20:23:30;96801.44;;;15.90;65.77
48386;BME280;34644;47.964;7.982;2023-05-19T20:30:30;96805.97;;;15.90;65.79
48386;BME280;34644;47.964;7.982;2023-05-19T20:37:31;96800.56;;;15.74;64.85
48386;BME280;34644;47.964;7.982;2023-05-19T20:44:31;96797.69;;;15.81;65.80
48386;BME280;34644;47.964;7.982;2023-05-19T20:51:31;96791.06;;;15.84;65.81
48386;BME280;34644;47.964;7.982;2023-05-19T20:58:31;96792.94;;;15.83;65.89
48386;BME280;34644;47.964;7.982;2023-05-19T21:05:33;96784.44;;;15.86;65.86
48386;BME280;34644;47.964;7.982;2023-05-19T21:12:33;96786.28;;;15.86;66.06
48386;BME280;34644;47.964;7.982;2023-05-19T21:19:35;96778.56;;;15.84;66.19
48386;BME280;34644;47.964;7.982;2023-05-19T21:26:38;96774.06;;;15.85;66.08
48386;BME280;34644;47.964;7.982;2023-05-19T21:33:38;96767.13;;;15.84;65.95
48386;BME280;34644;47.964;7.982;2023-05-19T21:40:38;96764.75;;;15.82;65.97
48386;BME280;34644;47.964;7.982;2023-05-19T21:47:39;96762.88;;;15.83;65.99
48386;BME280;34644;47.964;7.982;2023-05-19T21:54:39;96752.50;;;15.81;65.97
48386;BME280;34644;47.964;7.982;2023-05-19T22:01:39;96736.03;;;15.79;65.90
48386;BME280;34644;47.964;7.982;2023-05-19T22:08:39;96740.03;;;15.82;65.97
48386;BME280;34644;47.964;7.982;2023-05-19T22:15:40;96735.78;;;15.81;65.95
48386;BME280;34644;47.964;7.982;2023-05-19T22:22:40;96725.41;;;15.79;65.96
48386;BME280;34644;47.964;7.982;2023-05-19T22:29:43;96728.06;;;15.79;66.01
48386;BME280;34644;47.964;7.982;2023-05-19T22:36:43;96718.53;;;15.78;65.84
48386;BME280;34644;47.964;7.982;2023-05-19T22:43:44;96718.53;;;15.78;65.92
48386;BME280;34644;47.964;7.982;2023-05-19T22:50:45;96719.31;;;15.79;65.83
48386;BME280;34644;47.964;7.982;2023-05-19T22:57:45;96711.59;;;15.77;65.95
48386;BME280;34644;47.964;7.982;2023-05-19T23:04:46;96715.88;;;15.78;66.01
48386;BME280;34644;47.964;7.982;2023-05-19T23:11:46;96710.81;;;15.77;66.03
48386;BME280;34644;47.964;7.982;2023-05-19T23:18:46;96707.31;;;15.76;66.02
48386;BME280;34644;47.964;7.982;2023-05-19T23:25:46;96706.28;;;15.77;66.07
48386;BME280;34644;47.964;7.982;2023-05-19T23:32:47;96695.88;;;15.76;65.92
48386;BME280;34644;47.964;7.982;2023-05-19T23:39:47;96686.03;;;15.76;65.95
48386;BME280;34644;47.964;7.982;2023-05-19T23:46:47;96675.41;;;15.76;66.05
48386;BME280;34644;47.964;7.982;2023-05-19T23:53:47;96668.53;;;15.75;65.73
